Estación Meteorológica Peña el Pijo (Robertgarden) [ 01/30/23 14:36:04 CET ]

Fecha Hora Presion(HPa) Temp (°C) Humedad % Rocio (°C) Viento ( m/s) Direccion Lluvia 1Hora(mm) Lluvia 24H(mm) LLuvia Total(mm)
2010-Feb-21 01:01:15 1001.300 -0.7 83 -3.2         76.66
2010-Feb-21 02:03:13 1000.100 0.3 83 -2.2         76.66
2010-Feb-21 03:01:13 999.300 0.8 82 -2.0         76.66
2010-Feb-21 04:01:12 998.200 0.9 82 -1.9         76.66
2010-Feb-21 05:01:17 998.000 1.3 83 -1.3         76.66
2010-Feb-21 06:01:13 996.400 1.3 84 -1.2         76.66
2010-Feb-21 07:01:16 995.500 1.1 88 -0.7         76.66
2010-Feb-21 08:01:12 995.200 1.3 90 -0.2         76.66
2010-Feb-21 09:01:12 995.200 1.6 91 0.2         76.66
2010-Feb-21 10:01:11 994.900 1.8 91 0.5 1.1 NW     76.66
2010-Feb-21 11:01:16 994.500 2.2 91 0.8 1.7 NNW     76.66
2010-Feb-21 12:01:12 994.200 5.6 87 3.6         76.66
2010-Feb-21 13:01:13 993.900 15.2 59 7.2         76.66
2010-Feb-21 14:01:12 993.600 12.9 60 5.3         76.66
2010-Feb-21 15:01:13 993.000 15.1 53 5.6 0.3 ESE     76.66
2010-Feb-21 16:01:16 993.000 13.9 55 5.0 1.5 E     76.66
2010-Feb-21 17:01:11 993.800 9.8 72 5.0 2.3 S     76.66
2010-Feb-21 18:01:14 994.400 7.3 81 4.3     1.03 1.03 77.70
2010-Feb-21 19:01:17 994.300 6.8 81 3.8       1.03 77.70
2010-Feb-21 20:01:19 994.300 6.5 82 3.6       1.03 77.70
2010-Feb-21 21:01:13 994.500 7.0 82 4.1 0.9 ESE   1.03 77.70
2010-Feb-21 22:01:13 995.800 5.9 83 3.2       1.03 77.70
2010-Feb-21 23:01:17 996.500 5.9 87 3.9       1.03 77.70

Temperatura Máxima:15°    Temperatura Mínima:
Presión Máxima:1001.300 Hpa    Presión Mínima:993.000 Hpa


Volver